createdAt,value
2023-05-12T00:01:16.963Z,98421.88
2023-05-12T00:03:43.674Z,98424.66
2023-05-12T00:06:11.303Z,98421.53
2023-05-12T00:08:37.873Z,98419.19
2023-05-12T00:11:04.342Z,98426.84
2023-05-12T00:13:30.891Z,98421.66
2023-05-12T00:15:59.035Z,98424.72
2023-05-12T00:18:26.360Z,98419.97
2023-05-12T00:20:54.417Z,98414.88
2023-05-12T00:23:21.341Z,98419.63
2023-05-12T00:25:47.899Z,98414.88
2023-05-12T00:28:14.374Z,98422.41
2023-05-12T00:30:40.847Z,98420.34
2023-05-12T00:33:07.325Z,98412.94
2023-05-12T00:35:33.804Z,98415.91
2023-05-12T00:38:00.292Z,98423.66
2023-05-12T00:40:26.758Z,98417.44
2023-05-12T00:42:53.351Z,98426.31
2023-05-12T00:45:20.473Z,98428.09
2023-05-12T00:47:47.080Z,98417.59
2023-05-12T00:50:13.618Z,98417.34
2023-05-12T00:52:40.158Z,98418.91
2023-05-12T00:55:06.855Z,98413.03
2023-05-12T00:57:33.424Z,98409.84
2023-05-12T00:59:59.904Z,98416.28
2023-05-12T01:02:26.763Z,98418.75
2023-05-12T01:04:53.326Z,98410.00
2023-05-12T01:07:21.823Z,98419.63
2023-05-12T01:09:48.477Z,98415.78
2023-05-12T01:12:15.107Z,98418.53
2023-05-12T01:14:41.640Z,98423.94
2023-05-12T01:17:10.537Z,98418.34
2023-05-12T01:19:54.009Z,98431.41
2023-05-12T01:22:20.522Z,98427.28
2023-05-12T01:24:51.382Z,98426.13
2023-05-12T01:27:17.921Z,98430.53
2023-05-12T01:29:47.730Z,98432.31
2023-05-12T01:32:14.983Z,98426.06
2023-05-12T01:34:42.613Z,98436.66
2023-05-12T01:37:09.709Z,98437.09
2023-05-12T01:39:36.581Z,98427.75
2023-05-12T01:42:04.031Z,98428.94
2023-05-12T01:44:30.527Z,98428.66
2023-05-12T01:46:57.071Z,98425.88
2023-05-12T01:49:23.598Z,98429.97
2023-05-12T01:51:50.204Z,98435.13
2023-05-12T01:54:16.679Z,98429.28
2023-05-12T01:56:43.169Z,98429.34
2023-05-12T01:59:09.693Z,98430.03
2023-05-12T02:01:37.126Z,98439.97
2023-05-12T02:04:04.635Z,98431.44
2023-05-12T02:06:31.563Z,98431.94
2023-05-12T02:08:58.217Z,98440.25
2023-05-12T02:11:24.694Z,98441.78
2023-05-12T02:13:51.175Z,98437.03
2023-05-12T02:16:17.790Z,98440.25
2023-05-12T02:18:44.395Z,98444.03
2023-05-12T02:21:10.894Z,98443.69
2023-05-12T02:23:37.391Z,98445.53
2023-05-12T02:26:03.879Z,98437.69
2023-05-12T02:28:30.373Z,98439.41
2023-05-12T02:30:56.942Z,98450.16
2023-05-12T02:33:23.552Z,98442.19
2023-05-12T02:35:50.019Z,98442.50
2023-05-12T02:38:16.497Z,98439.72
2023-05-12T02:40:42.989Z,98433.59
2023-05-12T02:43:09.486Z,98442.94
2023-05-12T02:45:36.020Z,98438.19
2023-05-12T02:48:02.632Z,98441.06
2023-05-12T02:50:35.686Z,98433.19
2023-05-12T02:53:02.244Z,98434.13
2023-05-12T02:55:30.102Z,98436.28
2023-05-12T02:57:56.890Z,98443.25
2023-05-12T03:00:23.563Z,98431.59
2023-05-12T03:02:50.286Z,98436.19
2023-05-12T03:05:16.951Z,98435.50
2023-05-12T03:07:43.441Z,98441.63
2023-05-12T03:10:10.492Z,98440.03
2023-05-12T03:12:37.073Z,98425.78
2023-05-12T03:15:04.634Z,98435.38
2023-05-12T03:17:31.326Z,98437.84
2023-05-12T03:19:57.890Z,98435.28
2023-05-12T03:22:24.355Z,98427.22
2023-05-12T03:24:51.815Z,98428.91
2023-05-12T03:27:18.507Z,98432.84
2023-05-12T03:29:44.975Z,98427.06
2023-05-12T03:32:11.473Z,98428.44
2023-05-12T03:34:38.209Z,98426.13
2023-05-12T03:37:04.833Z,98429.50
2023-05-12T03:39:31.333Z,98431.13
2023-05-12T03:41:57.794Z,98429.63
2023-05-12T03:44:24.277Z,98426.38
2023-05-12T03:46:50.806Z,98427.53
2023-05-12T03:49:17.393Z,98423.59
2023-05-12T03:51:43.866Z,98435.75
2023-05-12T03:54:10.374Z,98432.44
2023-05-12T03:56:36.845Z,98421.16
2023-05-12T03:59:04.052Z,98429.44
2023-05-12T04:01:30.521Z,98429.97
2023-05-12T04:03:57.086Z,98428.09
2023-05-12T04:06:23.640Z,98425.91
2023-05-12T04:08:50.128Z,98428.81
2023-05-12T04:11:16.609Z,98425.47
2023-05-12T04:13:43.071Z,98430.06
2023-05-12T04:16:09.983Z,98435.50
2023-05-12T04:18:36.758Z,98443.53
2023-05-12T04:21:03.735Z,98446.31
2023-05-12T04:23:30.259Z,98443.44
2023-05-12T04:25:56.822Z,98440.53
2023-05-12T04:28:23.309Z,98443.16
2023-05-12T04:30:49.867Z,98453.00
2023-05-12T04:33:16.352Z,98450.72
2023-05-12T04:35:42.844Z,98451.97
2023-05-12T04:38:09.408Z,98456.75
2023-05-12T04:40:35.935Z,98454.50
2023-05-12T04:43:02.420Z,98454.25
2023-05-12T04:45:28.979Z,98465.88
2023-05-12T04:47:56.123Z,98466.19
2023-05-12T04:50:22.626Z,98464.47
2023-05-12T04:52:49.108Z,98460.19
2023-05-12T04:55:15.616Z,98466.97
2023-05-12T04:57:42.085Z,98461.50
2023-05-12T05:00:09.219Z,98468.44
2023-05-12T05:02:36.014Z,98474.63
2023-05-12T05:05:02.832Z,98467.16
2023-05-12T05:07:29.640Z,98462.81
2023-05-12T05:09:56.127Z,98461.75
2023-05-12T05:12:23.086Z,98462.97
2023-05-12T05:14:49.602Z,98455.25
2023-05-12T05:17:16.115Z,98452.44
2023-05-12T05:19:55.191Z,98448.88
2023-05-12T05:22:24.691Z,98453.19
2023-05-12T05:24:51.738Z,98446.53
2023-05-12T05:27:18.297Z,98442.13
2023-05-12T05:29:45.060Z,98446.16
2023-05-12T05:32:11.558Z,98448.41
2023-05-12T05:34:38.341Z,98443.56
2023-05-12T05:37:04.958Z,98450.41
2023-05-12T05:39:31.508Z,98447.81
2023-05-12T05:41:58.187Z,98452.13
2023-05-12T05:44:25.124Z,98461.97
2023-05-12T05:46:51.755Z,98461.41
2023-05-12T05:49:18.456Z,98462.06
2023-05-12T05:51:44.945Z,98469.31
2023-05-12T05:54:12.100Z,98469.53
2023-05-12T05:56:38.692Z,98466.41
2023-05-12T05:59:05.531Z,98467.75
2023-05-12T06:01:32.363Z,98474.72
2023-05-12T06:03:59.557Z,98465.72
2023-05-12T06:06:26.201Z,98467.38
2023-05-12T06:08:56.099Z,98472.78
2023-05-12T06:11:22.650Z,98462.75
2023-05-12T06:13:49.186Z,98447.78
2023-05-12T06:16:15.721Z,98457.31
2023-05-12T06:18:42.306Z,98460.25
2023-05-12T06:21:09.572Z,98446.47
2023-05-12T06:23:36.128Z,98442.97
2023-05-12T06:26:03.103Z,98445.91
2023-05-12T06:28:29.645Z,98443.09
2023-05-12T06:30:56.095Z,98430.09
2023-05-12T06:33:22.572Z,98416.47
2023-05-12T06:35:49.080Z,98418.25
2023-05-12T06:38:15.888Z,98424.50
2023-05-12T06:40:42.370Z,98413.09
2023-05-12T06:43:08.846Z,98415.75
2023-05-12T06:45:35.333Z,98419.63
2023-05-12T06:48:03.170Z,98414.56
2023-05-12T06:50:29.753Z,98408.06
2023-05-12T06:52:56.250Z,98413.97
2023-05-12T06:55:23.337Z,98420.16
2023-05-12T06:57:55.381Z,98419.84
2023-05-12T07:00:23.801Z,98419.53
2023-05-12T07:02:50.470Z,98417.22
2023-05-12T07:05:18.663Z,98413.78
2023-05-12T07:07:45.565Z,98416.00
2023-05-12T07:10:12.134Z,98418.13
2023-05-12T07:12:39.246Z,98424.16
2023-05-12T07:15:06.398Z,98413.50
2023-05-12T07:17:32.917Z,98408.44
2023-05-12T07:19:59.533Z,98415.00
2023-05-12T07:22:26.394Z,98406.22
2023-05-12T07:24:52.930Z,98405.19
2023-05-12T07:27:19.433Z,98413.84
2023-05-12T07:29:45.941Z,98407.44
2023-05-12T07:32:12.522Z,98404.81
2023-05-12T07:34:38.994Z,98401.72
2023-05-12T07:37:06.420Z,98404.34
2023-05-12T07:39:32.988Z,98404.41
2023-05-12T07:41:59.487Z,98415.00
2023-05-12T07:44:26.482Z,98410.41
2023-05-12T07:46:53.041Z,98414.81
2023-05-12T07:49:19.521Z,98410.47
2023-05-12T07:51:46.001Z,98407.53
2023-05-12T07:54:13.597Z,98407.19
2023-05-12T07:56:40.177Z,98399.94
2023-05-12T07:59:07.257Z,98397.13
2023-05-12T08:01:34.857Z,98407.81
2023-05-12T08:04:01.440Z,98407.22
2023-05-12T08:06:28.081Z,98403.16
2023-05-12T08:08:57.905Z,98408.78
2023-05-12T08:11:25.036Z,98404.97
2023-05-12T08:13:51.616Z,98398.81
2023-05-12T08:16:18.269Z,98398.44
2023-05-12T08:18:44.865Z,98409.44
2023-05-12T08:21:11.953Z,98412.47
2023-05-12T08:23:38.474Z,98402.41
2023-05-12T08:26:05.012Z,98412.81
2023-05-12T08:28:31.509Z,98416.88
2023-05-12T08:30:58.387Z,98418.75
2023-05-12T08:33:24.888Z,98412.72
2023-05-12T08:35:51.351Z,98415.09
2023-05-12T08:38:17.831Z,98412.22
2023-05-12T08:40:48.195Z,98413.84
2023-05-12T08:43:17.549Z,98427.63
2023-05-12T08:45:44.014Z,98415.22
2023-05-12T08:48:10.911Z,98428.47
2023-05-12T08:50:38.316Z,98418.53
2023-05-12T08:53:05.488Z,98424.94
2023-05-12T08:55:34.142Z,98427.72
2023-05-12T08:58:01.295Z,98420.50
2023-05-12T09:00:28.307Z,98419.72
2023-05-12T09:02:55.111Z,98420.53
2023-05-12T09:05:22.543Z,98419.44
2023-05-12T09:07:49.389Z,98425.56
2023-05-12T09:10:32.337Z,98419.16
2023-05-12T09:13:08.605Z,98410.69
2023-05-12T09:15:39.595Z,98425.56
2023-05-12T09:18:06.151Z,98429.59
2023-05-12T09:20:32.767Z,98428.75
2023-05-12T09:23:00.114Z,98425.16
2023-05-12T09:25:26.659Z,98433.16
2023-05-12T09:27:59.034Z,98421.44
2023-05-12T09:30:32.100Z,98419.69
2023-05-12T09:33:13.991Z,98419.59
2023-05-12T09:35:41.370Z,98430.19
2023-05-12T09:38:12.661Z,98416.50
2023-05-12T09:40:39.158Z,98418.28
2023-05-12T09:43:06.015Z,98425.09
2023-05-12T09:45:36.377Z,98432.47
2023-05-12T09:48:09.544Z,98426.28
2023-05-12T09:50:47.370Z,98428.13
2023-05-12T09:53:15.657Z,98435.78
2023-05-12T09:55:45.875Z,98424.63
2023-05-12T09:58:12.398Z,98427.41
2023-05-12T10:00:59.258Z,98419.22
2023-05-12T10:03:29.010Z,98425.78
2023-05-12T10:05:58.640Z,98419.03
2023-05-12T10:08:27.530Z,98436.34
2023-05-12T10:10:53.998Z,98424.81
2023-05-12T10:13:20.502Z,98418.03
2023-05-12T10:15:47.287Z,98443.34
2023-05-12T10:18:14.456Z,98421.06
2023-05-12T10:20:41.454Z,98420.00
2023-05-12T10:23:07.946Z,98411.56
2023-05-12T10:25:34.618Z,98432.59
2023-05-12T10:28:03.889Z,98418.16
2023-05-12T10:30:30.397Z,98433.44
2023-05-12T10:32:57.486Z,98416.09
2023-05-12T10:35:32.389Z,98423.34
2023-05-12T10:38:16.909Z,98428.69
2023-05-12T10:41:00.954Z,98417.72
2023-05-12T10:43:28.324Z,98427.78
2023-05-12T10:46:08.416Z,98419.88
2023-05-12T10:48:34.774Z,98423.19
2023-05-12T10:51:10.778Z,98431.00
2023-05-12T10:53:49.862Z,98421.88
2023-05-12T10:56:31.398Z,98418.38
2023-05-12T10:59:13.202Z,98427.56
2023-05-12T11:01:41.613Z,98428.41
2023-05-12T11:04:16.007Z,98427.56
2023-05-12T11:06:44.774Z,98415.31
2023-05-12T11:09:13.139Z,98423.06
2023-05-12T11:11:40.437Z,98415.16
2023-05-12T11:14:07.118Z,98412.00
2023-05-12T11:16:33.626Z,98413.94
2023-05-12T11:19:03.776Z,98446.53
2023-05-12T11:21:30.754Z,98440.09
2023-05-12T11:23:57.554Z,98446.13
2023-05-12T11:26:24.022Z,98446.25
2023-05-12T11:28:50.699Z,98434.19
2023-05-12T11:31:21.153Z,98447.31
2023-05-12T11:33:49.419Z,98445.78
2023-05-12T11:36:21.773Z,98443.25
2023-05-12T11:38:48.699Z,98444.16
2023-05-12T11:41:21.101Z,98459.78
2023-05-12T11:43:47.570Z,98457.97
2023-05-12T11:46:26.785Z,98466.00
2023-05-12T11:48:57.178Z,98458.84
2023-05-12T11:51:26.699Z,98457.66
2023-05-12T11:53:53.392Z,98450.59
2023-05-12T11:56:21.624Z,98451.50
2023-05-12T11:58:57.995Z,98463.31
2023-05-12T12:01:24.945Z,98457.97
2023-05-12T12:03:52.827Z,98473.66
2023-05-12T12:06:20.161Z,98461.59
2023-05-12T12:08:53.704Z,98472.03
2023-05-12T12:11:23.406Z,98456.44
2023-05-12T12:13:57.409Z,98472.72
2023-05-12T12:16:27.771Z,98473.09
2023-05-12T12:18:54.448Z,98463.59
2023-05-12T12:21:21.972Z,98455.47
2023-05-12T12:23:51.308Z,98463.16
2023-05-12T12:26:20.542Z,98467.94
2023-05-12T12:28:47.604Z,98480.44
2023-05-12T12:31:14.245Z,98461.91
2023-05-12T12:33:40.742Z,98467.84
2023-05-12T12:36:07.405Z,98467.84
2023-05-12T12:38:33.884Z,98466.47
2023-05-12T12:41:00.369Z,98467.69
2023-05-12T12:43:27.475Z,98466.44
2023-05-12T12:45:54.607Z,98470.16
2023-05-12T12:48:21.657Z,98466.75
2023-05-12T12:50:48.213Z,98460.31
2023-05-12T12:53:14.673Z,98462.00
2023-05-12T12:55:41.162Z,98456.31
2023-05-12T12:58:07.634Z,98446.66
2023-05-12T13:00:34.114Z,98448.16
2023-05-12T13:03:01.274Z,98449.84
2023-05-12T13:05:27.896Z,98454.00
2023-05-12T13:07:55.469Z,98460.44
2023-05-12T13:10:22.221Z,98448.75
2023-05-12T13:12:48.686Z,98445.22
2023-05-12T13:15:16.010Z,98443.69
2023-05-12T13:17:43.479Z,98445.94
2023-05-12T13:20:10.422Z,98452.81
2023-05-12T13:22:36.910Z,98445.22
2023-05-12T13:25:06.629Z,98440.91
2023-05-12T13:27:33.939Z,98456.78
2023-05-12T13:30:00.465Z,98462.25
2023-05-12T13:32:26.991Z,98464.88
2023-05-12T13:34:53.505Z,98455.38
2023-05-12T13:37:20.019Z,98457.19
2023-05-12T13:39:46.485Z,98453.97
2023-05-12T13:42:12.989Z,98453.75
2023-05-12T13:44:39.460Z,98451.25
2023-05-12T13:47:08.788Z,98444.44
2023-05-12T13:49:35.619Z,98449.31
2023-05-12T13:52:02.368Z,98462.88
2023-05-12T13:54:28.910Z,98460.75
2023-05-12T13:56:55.384Z,98462.84
2023-05-12T13:59:22.262Z,98458.75
2023-05-12T14:01:48.818Z,98454.78
2023-05-12T14:04:15.358Z,98465.16
2023-05-12T14:06:42.110Z,98452.50
2023-05-12T14:09:08.629Z,98448.69
2023-05-12T14:11:35.194Z,98450.78
2023-05-12T14:14:03.272Z,98433.63
2023-05-12T14:16:30.105Z,98445.94
2023-05-12T14:18:56.850Z,98445.09
2023-05-12T14:21:23.369Z,98441.72
2023-05-12T14:23:51.297Z,98447.66
2023-05-12T14:26:17.978Z,98458.41
2023-05-12T14:28:44.530Z,98461.50
2023-05-12T14:31:11.206Z,98456.97
2023-05-12T14:33:38.083Z,98448.19
2023-05-12T14:36:07.966Z,98454.97
2023-05-12T14:38:35.156Z,98459.41
2023-05-12T14:41:01.654Z,98455.63
2023-05-12T14:43:28.192Z,98462.72
2023-05-12T14:45:54.921Z,98455.78
2023-05-12T14:48:22.466Z,98439.84
2023-05-12T14:50:54.375Z,98449.94
2023-05-12T14:53:21.109Z,98456.78
2023-05-12T14:55:48.987Z,98445.53
2023-05-12T14:58:17.578Z,98450.69
2023-05-12T15:00:44.716Z,98449.50
2023-05-12T15:03:11.532Z,98449.03
2023-05-12T15:05:56.865Z,98442.91
2023-05-12T15:08:24.739Z,98453.16
2023-05-12T15:10:51.292Z,98453.22
2023-05-12T15:13:20.234Z,98439.50
2023-05-12T15:15:46.887Z,98443.31
2023-05-12T15:18:13.576Z,98439.16
2023-05-12T15:20:40.252Z,98442.47
2023-05-12T15:23:06.841Z,98442.06
2023-05-12T15:25:33.344Z,98441.84
2023-05-12T15:27:59.832Z,98446.66
2023-05-12T15:30:26.322Z,98454.63
2023-05-12T15:32:52.861Z,98433.84
2023-05-12T15:35:19.902Z,98437.53
2023-05-12T15:37:46.601Z,98436.63
2023-05-12T15:40:13.631Z,98434.31
2023-05-12T15:42:40.662Z,98445.97
2023-05-12T15:45:08.530Z,98437.56
2023-05-12T15:47:36.007Z,98443.25
2023-05-12T15:50:03.582Z,98440.00
2023-05-12T15:52:30.520Z,98445.22
2023-05-12T15:54:57.234Z,98430.69
2023-05-12T15:57:23.723Z,98441.44
2023-05-12T15:59:51.983Z,98441.28
2023-05-12T16:02:18.696Z,98430.19
2023-05-12T16:04:45.227Z,98436.75
2023-05-12T16:07:11.836Z,98431.94
2023-05-12T16:09:38.464Z,98432.03
2023-05-12T16:12:06.889Z,98431.56
2023-05-12T16:14:34.958Z,98429.22
2023-05-12T16:17:01.468Z,98430.91
2023-05-12T16:19:27.923Z,98426.69
2023-05-12T16:21:54.949Z,98425.91
2023-05-12T16:24:21.844Z,98430.34
2023-05-12T16:26:48.345Z,98430.38
2023-05-12T16:29:14.938Z,98428.81
2023-05-12T16:31:41.451Z,98428.34
2023-05-12T16:34:07.952Z,98436.81
2023-05-12T16:36:34.409Z,98429.56
2023-05-12T16:39:00.874Z,98435.59
2023-05-12T16:41:28.779Z,98431.25
2023-05-12T16:43:55.408Z,98435.34
2023-05-12T16:46:22.297Z,98429.31
2023-05-12T16:48:48.853Z,98425.31
2023-05-12T16:51:15.391Z,98434.16
2023-05-12T16:53:42.093Z,98433.00
2023-05-12T16:56:08.880Z,98421.34
2023-05-12T16:58:35.690Z,98431.03
2023-05-12T17:01:02.321Z,98434.25
2023-05-12T17:03:29.190Z,98429.88
2023-05-12T17:05:56.225Z,98439.09
2023-05-12T17:08:22.796Z,98436.31
2023-05-12T17:10:49.277Z,98435.50
2023-05-12T17:13:16.740Z,98435.53
2023-05-12T17:15:43.268Z,98440.38
2023-05-12T17:18:10.256Z,98437.56
2023-05-12T17:20:36.981Z,98433.16
2023-05-12T17:23:03.456Z,98437.56
2023-05-12T17:25:31.280Z,98439.22
2023-05-12T17:27:58.224Z,98444.84
2023-05-12T17:30:24.704Z,98447.63
2023-05-12T17:32:51.660Z,98448.03
2023-05-12T17:35:18.320Z,98446.44
2023-05-12T17:37:44.829Z,98447.25
2023-05-12T17:40:16.076Z,98457.69
2023-05-12T17:42:42.542Z,98455.66
2023-05-12T17:45:09.559Z,98450.88
2023-05-12T17:47:36.067Z,98462.50
2023-05-12T17:50:02.621Z,98462.13
2023-05-12T17:52:29.145Z,98453.66
2023-05-12T17:54:58.188Z,98456.88
2023-05-12T17:57:24.652Z,98459.28
2023-05-12T17:59:51.325Z,98463.31
2023-05-12T18:02:18.316Z,98466.91
2023-05-12T18:04:45.006Z,98471.72
2023-05-12T18:07:11.557Z,98472.91
2023-05-12T18:09:38.103Z,98474.91
2023-05-12T18:12:04.734Z,98479.66
2023-05-12T18:14:31.439Z,98475.16
2023-05-12T18:16:57.940Z,98484.31
2023-05-12T18:19:24.663Z,98481.50
2023-05-12T18:21:52.030Z,98479.03
2023-05-12T18:24:23.824Z,98485.38
2023-05-12T18:26:50.735Z,98487.34
2023-05-12T18:29:48.010Z,98487.28
2023-05-12T18:32:20.592Z,98484.28
2023-05-12T18:34:48.953Z,98492.66
2023-05-12T18:37:18.332Z,98485.41
2023-05-12T18:39:44.844Z,98484.00
2023-05-12T18:42:12.230Z,98496.38
2023-05-12T18:44:44.846Z,98494.56
2023-05-12T18:47:11.927Z,98490.19
2023-05-12T18:49:38.668Z,98504.56
2023-05-12T18:52:05.485Z,98494.84
2023-05-12T18:54:33.078Z,98500.97
2023-05-12T18:57:01.748Z,98498.84
2023-05-12T18:59:29.010Z,98504.81
2023-05-12T19:01:57.236Z,98505.94
2023-05-12T19:04:23.810Z,98498.94
2023-05-12T19:06:51.897Z,98512.06
2023-05-12T19:09:19.653Z,98516.72
2023-05-12T19:11:46.801Z,98506.31
2023-05-12T19:14:13.822Z,98509.97
2023-05-12T19:16:46.647Z,98512.06
2023-05-12T19:19:13.623Z,98516.34
2023-05-12T19:21:40.449Z,98522.88
2023-05-12T19:24:07.015Z,98519.22
2023-05-12T19:26:35.095Z,98522.75
2023-05-12T19:29:03.085Z,98526.81
2023-05-12T19:31:30.461Z,98525.69
2023-05-12T19:33:56.993Z,98528.91
2023-05-12T19:36:23.453Z,98527.25
2023-05-12T19:38:51.426Z,98534.38
2023-05-12T19:41:18.178Z,98530.19
2023-05-12T19:43:47.828Z,98524.66
2023-05-12T19:46:19.191Z,98533.47
2023-05-12T19:48:46.448Z,98529.75
2023-05-12T19:51:14.999Z,98538.13
2023-05-12T19:53:43.070Z,98533.31
2023-05-12T19:56:11.404Z,98534.22
2023-05-12T19:58:39.909Z,98546.41
2023-05-12T20:01:06.457Z,98545.75
2023-05-12T20:03:33.534Z,98537.84
2023-05-12T20:06:00.434Z,98544.31
2023-05-12T20:08:27.094Z,98555.78
2023-05-12T20:10:55.267Z,98548.72
2023-05-12T20:13:21.982Z,98556.53
2023-05-12T20:15:53.044Z,98556.72
2023-05-12T20:18:21.510Z,98552.91
2023-05-12T20:20:49.788Z,98550.72
2023-05-12T20:23:17.552Z,98549.09
2023-05-12T20:25:44.228Z,98546.03
2023-05-12T20:28:11.704Z,98549.63
2023-05-12T20:30:38.611Z,98545.47
2023-05-12T20:33:05.324Z,98554.53
2023-05-12T20:35:32.344Z,98552.81
2023-05-12T20:38:01.517Z,98555.56
2023-05-12T20:40:28.858Z,98553.25
2023-05-12T20:42:55.837Z,98546.84
2023-05-12T20:45:23.140Z,98546.97
2023-05-12T20:47:56.109Z,98551.59
2023-05-12T20:50:25.403Z,98551.59
2023-05-12T20:52:51.918Z,98549.81
2023-05-12T20:55:18.875Z,98544.28
2023-05-12T20:57:45.479Z,98546.75
2023-05-12T21:00:15.555Z,98552.25
2023-05-12T21:02:47.337Z,98550.81
2023-05-12T21:05:15.150Z,98554.13
2023-05-12T21:07:42.455Z,98549.97
2023-05-12T21:10:09.645Z,98564.19
2023-05-12T21:12:36.433Z,98556.69
2023-05-12T21:15:04.466Z,98557.50
2023-05-12T21:17:35.075Z,98560.72
2023-05-12T21:20:01.781Z,98562.00
2023-05-12T21:22:28.492Z,98562.50
2023-05-12T21:24:57.516Z,98564.31
2023-05-12T21:27:24.561Z,98569.34
2023-05-12T21:29:52.399Z,98572.19
2023-05-12T21:32:18.932Z,98577.13
2023-05-12T21:34:46.758Z,98576.34
2023-05-12T21:37:14.949Z,98575.66
2023-05-12T21:39:49.506Z,98577.22
2023-05-12T21:42:16.260Z,98574.34
2023-05-12T21:44:42.728Z,98572.78
2023-05-12T21:47:10.529Z,98567.50
2023-05-12T21:49:38.134Z,98565.72
2023-05-12T21:52:07.363Z,98567.19
2023-05-12T21:54:34.179Z,98564.03
2023-05-12T21:57:01.238Z,98579.66
2023-05-12T21:59:29.762Z,98577.22
2023-05-12T22:01:57.356Z,98587.50
2023-05-12T22:04:24.455Z,98575.16
2023-05-12T22:06:51.844Z,98577.22
2023-05-12T22:09:20.596Z,98579.66
2023-05-12T22:11:48.874Z,98578.19
2023-05-12T22:14:20.894Z,98579.88
2023-05-12T22:16:59.278Z,98579.56
2023-05-12T22:19:25.818Z,98580.25
2023-05-12T22:21:53.569Z,98586.13
2023-05-12T22:24:33.476Z,98583.69
2023-05-12T22:27:02.140Z,98587.06
2023-05-12T22:29:28.673Z,98588.84
2023-05-12T22:31:55.673Z,98579.28
2023-05-12T22:34:23.447Z,98582.28
2023-05-12T22:36:55.166Z,98582.72
2023-05-12T22:39:21.662Z,98580.47
2023-05-12T22:41:51.045Z,98581.78
2023-05-12T22:44:17.831Z,98583.34
2023-05-12T22:46:44.674Z,98587.75
2023-05-12T22:49:15.237Z,98581.28
2023-05-12T22:51:46.318Z,98586.19
2023-05-12T22:54:12.780Z,98584.88
2023-05-12T22:56:44.724Z,98579.72
2023-05-12T22:59:11.443Z,98581.19
2023-05-12T23:01:37.917Z,98585.06
2023-05-12T23:04:05.928Z,98582.97
2023-05-12T23:06:36.726Z,98580.97
2023-05-12T23:09:08.332Z,98580.44
2023-05-12T23:11:34.851Z,98578.75
2023-05-12T23:14:01.980Z,98580.09
2023-05-12T23:16:29.654Z,98580.66
2023-05-12T23:18:56.446Z,98575.09
2023-05-12T23:21:22.963Z,98578.69
2023-05-12T23:23:53.645Z,98580.63
2023-05-12T23:26:21.029Z,98578.03
2023-05-12T23:28:48.648Z,98585.38
2023-05-12T23:31:15.854Z,98578.38
2023-05-12T23:33:44.747Z,98580.66
2023-05-12T23:36:13.706Z,98571.56
2023-05-12T23:38:42.933Z,98575.75
2023-05-12T23:41:11.486Z,98574.94
2023-05-12T23:43:39.874Z,98572.47
2023-05-12T23:46:08.755Z,98574.69
2023-05-12T23:48:37.299Z,98576.78
2023-05-12T23:51:05.946Z,98570.38
2023-05-12T23:53:32.986Z,98568.47
2023-05-12T23:56:01.522Z,98575.25
2023-05-12T23:58:27.983Z,98570.81
